Time;durP1;ratioP1;P1;durP2;ratioP2;P2;SDS_P1;SDS_P2;PMS_P1;PMS_P2;Temp;Humidity;BMP_temperature;BMP_pressure;BME280_temperature;BME280_humidity;BME280_pressure;Samples;Min_cycle;Max_cycle;Signal;HPM_P1;HPM_P2
2022/01/07 00:00:16;;;;;;;12.85;3.38;;;11.10;64.10;;;;;;6159406;23;20021;-74
2022/01/07 00:02:44;;;;;;;7.90;2.90;;;11.10;64.00;;;;;;6160679;23;20091;-76
2022/01/07 00:05:10;;;;;;;7.35;2.67;;;11.10;63.40;;;;;;6160881;23;20021;-75
2022/01/07 00:07:35;;;;;;;9.50;2.88;;;11.00;62.70;;;;;;6159579;23;20024;-74
2022/01/07 00:10:03;;;;;;;13.82;3.10;;;11.00;63.30;;;;;;6161132;23;20096;-76
2022/01/07 00:12:28;;;;;;;11.20;3.05;;;11.00;63.50;;;;;;6161434;23;20018;-75
2022/01/07 00:14:54;;;;;;;10.77;2.78;;;11.00;63.00;;;;;;6160389;23;20036;-74
2022/01/07 00:17:20;;;;;;;12.38;2.97;;;10.90;63.80;;;;;;6161220;23;20017;-74
2022/01/07 00:19:45;;;;;;;9.88;3.03;;;10.80;63.40;;;;;;6161265;23;20426;-76
2022/01/07 00:22:12;;;;;;;9.70;3.25;;;10.80;63.60;;;;;;6160292;23;20022;-75
2022/01/07 00:24:37;;;;;;;10.88;2.83;;;10.80;63.80;;;;;;6160574;23;20021;-76
2022/01/07 00:27:03;;;;;;;5.82;2.40;;;10.80;64.00;;;;;;6160397;23;20022;-75
2022/01/07 00:29:29;;;;;;;9.65;2.60;;;10.80;64.20;;;;;;6159656;23;20092;-75
2022/01/07 00:31:55;;;;;;;6.65;2.80;;;10.70;64.20;;;;;;6160748;23;20079;-75
2022/01/07 00:34:21;;;;;;;9.55;3.03;;;10.70;64.40;;;;;;6160923;23;20315;-73
2022/01/07 00:36:46;;;;;;;9.10;2.97;;;10.60;63.70;;;;;;6159878;23;20403;-74
2022/01/07 00:39:12;;;;;;;6.20;2.22;;;10.60;64.10;;;;;;6159653;23;20055;-74
2022/01/07 00:41:38;;;;;;;8.85;2.92;;;10.60;64.40;;;;;;6158888;23;20029;-76
2022/01/07 00:44:04;;;;;;;7.72;2.55;;;10.70;64.70;;;;;;6159172;23;20021;-75
2022/01/07 00:46:30;;;;;;;9.27;2.97;;;10.60;64.30;;;;;;6158133;23;20028;-76
2022/01/07 00:48:56;;;;;;;7.15;3.00;;;10.60;64.40;;;;;;6158694;23;20064;-76
2022/01/07 00:51:21;;;;;;;7.00;2.50;;;10.60;64.30;;;;;;6158252;23;20021;-74
2022/01/07 00:53:47;;;;;;;9.63;2.65;;;10.60;64.20;;;;;;6157807;23;20018;-74
2022/01/07 00:56:13;;;;;;;5.05;2.50;;;10.60;64.10;;;;;;6159121;23;20284;-75
2022/01/07 00:58:39;;;;;;;5.53;2.97;;;10.60;64.30;;;;;;6159210;23;20022;-73
2022/01/07 01:01:05;;;;;;;9.65;3.22;;;10.60;64.50;;;;;;6158583;23;20482;-75
2022/01/07 01:03:31;;;;;;;9.98;2.75;;;10.60;64.40;;;;;;6158167;23;20021;-74
2022/01/07 01:05:58;;;;;;;6.35;2.72;;;10.50;64.10;;;;;;6159069;23;20025;-75
2022/01/07 01:08:27;;;;;;;8.43;2.72;;;10.50;64.50;;;;;;6158802;23;20028;-75
2022/01/07 01:10:54;;;;;;;6.60;2.75;;;10.50;64.70;;;;;;6159037;23;20029;-76
2022/01/07 01:13:20;;;;;;;5.35;2.85;;;10.50;64.40;;;;;;6159004;23;20036;-74
2022/01/07 01:15:46;;;;;;;6.53;3.08;;;10.50;64.60;;;;;;6158790;23;20028;-74
2022/01/07 01:18:12;;;;;;;6.72;2.83;;;10.50;64.50;;;;;;6159056;23;20053;-76
2022/01/07 01:20:38;;;;;;;8.00;2.80;;;10.50;64.90;;;;;;6158039;23;20029;-74
2022/01/07 01:23:04;;;;;;;6.70;3.13;;;10.50;64.90;;;;;;6157592;23;20029;-74
2022/01/07 01:25:30;;;;;;;7.95;3.13;;;10.50;65.20;;;;;;6158503;23;20108;-75
2022/01/07 01:27:55;;;;;;;5.55;2.75;;;10.50;65.00;;;;;;6159166;23;20013;-73
2022/01/07 01:30:21;;;;;;;5.25;2.80;;;10.50;65.00;;;;;;6157778;23;20025;-74
2022/01/07 01:32:48;;;;;;;10.23;2.78;;;10.50;64.90;;;;;;6157870;23;20049;-74
2022/01/07 01:35:15;;;;;;;6.93;2.88;;;10.50;65.10;;;;;;6158678;23;20018;-76
2022/01/07 01:37:41;;;;;;;11.70;3.40;;;10.40;64.90;;;;;;6157671;23;20021;-74
2022/01/07 01:40:08;;;;;;;7.57;3.20;;;10.40;65.10;;;;;;6158986;23;20021;-74
2022/01/07 01:42:35;;;;;;;6.18;2.83;;;10.40;65.00;;;;;;6157767;23;20021;-75
2022/01/07 01:45:00;;;;;;;6.13;2.88;;;10.40;65.30;;;;;;6157620;23;20022;-75
2022/01/07 01:47:26;;;;;;;6.20;3.05;;;10.30;65.20;;;;;;6156887;23;20025;-77
2022/01/07 01:49:52;;;;;;;8.10;3.00;;;10.30;65.50;;;;;;6158737;23;20033;-74
2022/01/07 01:52:17;;;;;;;7.97;3.22;;;10.30;65.40;;;;;;6158516;23;20036;-76
2022/01/07 01:54:43;;;;;;;5.40;2.67;;;10.30;65.60;;;;;;6158333;23;20092;-75
2022/01/07 01:57:10;;;;;;;4.95;2.90;;;10.30;65.50;;;;;;6158929;23;20048;-74
2022/01/07 01:59:36;;;;;;;7.18;3.00;;;10.30;65.70;;;;;;6158385;23;20021;-75
2022/01/07 02:02:02;;;;;;;5.65;2.85;;;10.20;65.80;;;;;;6158031;23;20033;-74
2022/01/07 02:04:29;;;;;;;7.28;3.13;;;10.30;66.30;;;;;;6158246;23;20152;-75
2022/01/07 02:06:56;;;;;;;4.53;2.85;;;10.20;65.80;;;;;;6156842;23;20396;-74
2022/01/07 02:09:29;;;;;;;5.95;2.65;;;10.20;65.50;;;;;;6157968;23;20444;-74
2022/01/07 02:11:55;;;;;;;5.50;2.80;;;10.20;65.90;;;;;;6157206;23;20014;-74
2022/01/07 02:14:20;;;;;;;5.72;2.97;;;10.20;65.60;;;;;;6157281;23;20425;-76
2022/01/07 02:16:46;;;;;;;8.00;3.10;;;10.20;65.70;;;;;;6157123;23;20013;-74
2022/01/07 02:19:12;;;;;;;5.38;3.03;;;10.20;66.00;;;;;;6157974;23;20342;-75
2022/01/07 02:21:38;;;;;;;3.20;2.40;;;10.20;65.80;;;;;;6158458;23;20022;-76
2022/01/07 02:24:05;;;;;;;4.68;2.58;;;10.20;66.00;;;;;;6158193;23;20078;-76
2022/01/07 02:26:33;;;;;;;4.13;2.47;;;10.10;66.00;;;;;;6158006;23;20447;-73
2022/01/07 02:28:59;;;;;;;4.15;2.60;;;10.10;66.10;;;;;;6158263;23;20017;-75
2022/01/07 02:31:25;;;;;;;4.57;2.60;;;10.10;65.90;;;;;;6157863;23;20022;-76
2022/01/07 02:33:51;;;;;;;3.90;2.15;;;10.10;66.00;;;;;;6132389;23;20318;-75
2022/01/07 02:36:16;;;;;;;3.45;2.35;;;10.00;66.10;;;;;;6157397;23;20032;-76
2022/01/07 02:38:42;;;;;;;2.88;2.03;;;10.10;66.10;;;;;;6158172;23;20029;-74
2022/01/07 02:41:08;;;;;;;5.47;2.30;;;10.00;66.30;;;;;;6157980;23;20021;-75
2022/01/07 02:43:34;;;;;;;5.50;2.70;;;10.10;66.30;;;;;;6158338;23;20018;-74
2022/01/07 02:45:59;;;;;;;3.10;2.10;;;10.10;66.10;;;;;;6156905;23;20351;-74
2022/01/07 02:48:25;;;;;;;4.47;2.15;;;10.10;65.90;;;;;;6157413;23;20085;-75
2022/01/07 02:50:51;;;;;;;5.88;2.70;;;10.10;66.00;;;;;;6158803;23;20340;-75
2022/01/07 02:53:17;;;;;;;3.95;2.50;;;10.00;66.20;;;;;;6157976;23;20032;-75
2022/01/07 02:55:42;;;;;;;3.55;2.30;;;10.00;66.30;;;;;;6156717;23;20026;-75
2022/01/07 02:58:09;;;;;;;6.20;3.13;;;10.00;66.40;;;;;;6157369;23;20018;-76
2022/01/07 03:00:36;;;;;;;4.50;2.55;;;10.00;66.30;;;;;;6158069;23;20018;-76
2022/01/07 03:03:03;;;;;;;4.38;2.60;;;10.00;66.10;;;;;;6157533;23;20089;-74
2022/01/07 03:05:29;;;;;;;3.03;2.33;;;10.00;66.50;;;;;;6157929;23;20017;-75
2022/01/07 03:07:55;;;;;;;5.30;2.65;;;10.00;66.40;;;;;;6156653;23;20088;-74
2022/01/07 03:10:26;;;;;;;4.68;2.42;;;9.90;66.50;;;;;;6157875;23;20087;-75
2022/01/07 03:12:52;;;;;;;4.35;2.78;;;9.90;66.50;;;;;;6158047;23;20148;-75
2022/01/07 03:15:18;;;;;;;4.60;2.50;;;10.00;66.40;;;;;;6156983;23;20064;-75
2022/01/07 03:17:44;;;;;;;4.43;2.90;;;10.00;66.70;;;;;;6157795;23;20029;-75
2022/01/07 03:20:14;;;;;;;6.20;3.25;;;9.90;66.40;;;;;;6156867;23;20295;-77
2022/01/07 03:22:40;;;;;;;5.00;2.67;;;9.90;66.40;;;;;;6158079;23;20036;-74
2022/01/07 03:25:07;;;;;;;5.00;3.10;;;9.90;66.80;;;;;;6156611;23;20022;-74
2022/01/07 03:27:33;;;;;;;3.90;2.72;;;9.90;66.90;;;;;;6156243;23;20021;-74
2022/01/07 03:29:59;;;;;;;5.80;3.30;;;9.90;66.80;;;;;;6158140;23;20085;-74
2022/01/07 03:32:25;;;;;;;6.03;3.15;;;9.90;66.70;;;;;;6157141;23;20111;-74
2022/01/07 03:34:52;;;;;;;5.38;3.13;;;9.90;66.80;;;;;;6158538;23;20022;-75
2022/01/07 03:37:17;;;;;;;5.18;2.83;;;9.80;66.90;;;;;;6157680;23;20093;-74
2022/01/07 03:39:43;;;;;;;5.13;3.10;;;9.90;66.80;;;;;;6158272;23;20064;-73
2022/01/07 03:42:09;;;;;;;4.50;2.67;;;9.80;67.00;;;;;;6156437;23;20022;-74
2022/01/07 03:44:35;;;;;;;5.78;3.00;;;9.90;67.00;;;;;;6156512;23;20017;-75
2022/01/07 03:47:01;;;;;;;5.03;3.03;;;9.90;67.10;;;;;;6158029;23;20021;-74
2022/01/07 03:49:26;;;;;;;4.63;3.08;;;9.90;67.00;;;;;;6156421;23;20021;-76
2022/01/07 03:51:52;;;;;;;4.68;2.60;;;9.80;67.20;;;;;;6158827;23;20044;-76
2022/01/07 03:54:18;;;;;;;4.47;2.70;;;9.80;67.20;;;;;;6156566;23;20390;-76
2022/01/07 03:56:44;;;;;;;6.75;3.20;;;9.80;67.20;;;;;;6157813;23;20395;-74
2022/01/07 03:59:10;;;;;;;7.10;3.13;;;9.80;67.20;;;;;;6157728;23;20017;-75
2022/01/07 04:01:35;;;;;;;4.88;2.97;;;9.80;67.40;;;;;;6156191;23;20490;-74
2022/01/07 04:04:01;;;;;;;4.38;2.80;;;9.80;67.30;;;;;;6156624;23;20026;-75
2022/01/07 04:06:27;;;;;;;4.50;3.05;;;9.80;67.60;;;;;;6158158;23;20017;-74
2022/01/07 04:08:52;;;;;;;3.70;2.78;;;9.80;67.20;;;;;;6156028;23;20037;-74
2022/01/07 04:11:18;;;;;;;7.57;2.90;;;9.80;67.40;;;;;;6157905;23;20096;-75
2022/01/07 04:13:44;;;;;;;5.55;3.22;;;9.90;67.20;;;;;;6131985;23;20056;-73
2022/01/07 04:16:11;;;;;;;6.50;2.88;;;9.80;67.30;;;;;;6156447;23;20029;-75
2022/01/07 04:18:37;;;;;;;4.82;3.40;;;9.80;67.40;;;;;;6157236;23;20029;-75
2022/01/07 04:21:03;;;;;;;3.40;3.10;;;9.80;67.30;;;;;;6159516;23;20026;-75
2022/01/07 04:23:29;;;;;;;4.10;3.20;;;9.80;67.50;;;;;;6160109;23;20096;-77
2022/01/07 04:25:55;;;;;;;4.70;3.13;;;9.80;67.60;;;;;;6159424;23;20123;-74
2022/01/07 04:28:21;;;;;;;6.00;3.50;;;9.80;67.40;;;;;;6160153;23;20388;-75
2022/01/07 04:30:46;;;;;;;7.35;3.13;;;9.80;67.40;;;;;;6158118;23;20311;-75
2022/01/07 04:33:15;;;;;;;4.10;3.28;;;9.80;67.50;;;;;;6159005;23;20025;-74
2022/01/07 04:35:42;;;;;;;5.35;3.45;;;9.80;67.60;;;;;;6159831;23;20289;-74
2022/01/07 04:38:09;;;;;;;4.70;3.42;;;9.80;67.70;;;;;;6159351;23;20025;-75
2022/01/07 04:40:35;;;;;;;4.85;3.38;;;9.80;67.60;;;;;;6133290;23;20022;-74
2022/01/07 04:43:02;;;;;;;3.97;3.17;;;9.80;67.50;;;;;;6158341;23;20093;-74
2022/01/07 04:45:28;;;;;;;6.13;3.35;;;9.80;67.40;;;;;;6159621;23;20359;-74
2022/01/07 04:47:54;;;;;;;6.03;3.72;;;9.80;67.70;;;;;;6159114;23;20084;-74
2022/01/07 04:50:21;;;;;;;5.65;3.90;;;9.80;67.50;;;;;;6157852;23;20021;-75
2022/01/07 04:52:47;;;;;;;5.10;4.07;;;9.80;67.40;;;;;;6159325;23;20021;-75
2022/01/07 04:55:15;;;;;;;6.28;4.13;;;9.80;67.60;;;;;;6158253;23;20017;-76
2022/01/07 04:57:42;;;;;;;6.20;3.70;;;9.80;67.70;;;;;;6159541;23;20396;-75
2022/01/07 05:00:09;;;;;;;6.10;3.65;;;9.80;67.80;;;;;;6158092;23;20319;-76
2022/01/07 05:02:34;;;;;;;4.70;3.95;;;9.80;67.80;;;;;;6159026;23;20100;-74
2022/01/07 05:05:00;;;;;;;5.47;3.42;;;9.70;67.70;;;;;;6158971;23;20023;-75
2022/01/07 05:07:26;;;;;;;5.40;4.07;;;9.80;68.00;;;;;;6158745;23;20025;-74
2022/01/07 05:09:51;;;;;;;7.60;3.60;;;9.80;67.90;;;;;;6159110;23;20431;-74
2022/01/07 05:12:17;;;;;;;5.97;3.90;;;9.80;68.00;;;;;;6159823;23;20025;-74
2022/01/07 05:14:43;;;;;;;5.50;3.97;;;9.80;67.80;;;;;;6157318;23;20088;-76
2022/01/07 05:17:09;;;;;;;3.92;3.03;;;9.80;67.90;;;;;;6133486;23;20026;-76
2022/01/07 05:19:34;;;;;;;5.05;3.72;;;9.80;67.80;;;;;;6157736;23;20052;-73
2022/01/07 05:22:00;;;;;;;4.88;3.65;;;9.80;67.90;;;;;;6158903;23;20022;-75
2022/01/07 05:24:26;;;;;;;6.90;4.13;;;9.80;68.00;;;;;;6159978;23;20017;-75
2022/01/07 05:26:52;;;;;;;5.40;3.88;;;9.80;67.80;;;;;;6157739;23;20098;-75
2022/01/07 05:29:18;;;;;;;6.43;4.00;;;9.80;68.10;;;;;;6158642;23;20024;-74
2022/01/07 05:31:44;;;;;;;6.30;3.95;;;9.80;68.20;;;;;;6157614;23;20025;-76
2022/01/07 05:34:10;;;;;;;8.43;4.18;;;9.80;68.10;;;;;;6158967;23;20056;-74
2022/01/07 05:36:37;;;;;;;7.80;4.20;;;9.80;68.10;;;;;;6157722;23;20022;-76
2022/01/07 05:39:05;;;;;;;5.35;3.67;;;9.80;68.30;;;;;;6157385;23;20025;-75
2022/01/07 05:41:31;;;;;;;6.57;4.10;;;9.80;68.40;;;;;;6158980;23;20096;-73
2022/01/07 05:43:57;;;;;;;6.10;4.03;;;9.80;68.50;;;;;;6158616;23;20022;-74
2022/01/07 05:46:23;;;;;;;5.75;3.90;;;9.80;68.40;;;;;;6157224;23;20043;-75
2022/01/07 05:48:49;;;;;;;7.53;4.32;;;9.70;68.40;;;;;;6158209;23;20021;-74
2022/01/07 05:51:14;;;;;;;9.60;4.97;;;9.90;68.80;;;;;;6156705;23;20028;-72
2022/01/07 05:53:40;;;;;;;15.70;5.28;;;10.20;68.10;;;;;;6157990;23;20018;-72
2022/01/07 05:56:07;;;;;;;8.30;4.88;;;10.50;67.10;;;;;;6157393;23;20017;-75
2022/01/07 05:58:33;;;;;;;7.65;5.28;;;10.60;66.20;;;;;;6157363;23;20093;-74
2022/01/07 06:01:01;;;;;;;10.82;5.05;;;10.60;66.50;;;;;;6158464;23;20022;-71
2022/01/07 06:03:27;;;;;;;7.78;3.75;;;10.70;66.20;;;;;;6158057;23;20022;-74
2022/01/07 06:05:53;;;;;;;10.30;3.90;;;11.00;66.00;;;;;;6157037;23;20104;-75
2022/01/07 06:08:18;;;;;;;9.02;4.22;;;11.20;65.60;;;;;;6156973;23;20093;-74
2022/01/07 06:10:44;;;;;;;7.88;3.13;;;11.50;65.10;;;;;;6158833;23;20052;-78
2022/01/07 06:13:10;;;;;;;10.10;3.33;;;11.70;64.70;;;;;;6157269;23;20056;-77
2022/01/07 06:15:36;;;;;;;8.77;2.83;;;12.10;64.20;;;;;;6157294;23;20032;-78
2022/01/07 06:18:03;;;;;;;13.52;3.25;;;12.40;63.70;;;;;;6132507;23;20021;-76
2022/01/07 06:20:29;;;;;;;10.30;2.55;;;12.80;63.40;;;;;;6158950;23;20018;-75
2022/01/07 06:22:55;;;;;;;6.85;2.55;;;13.10;63.00;;;;;;6158691;23;20021;-77
2022/01/07 06:25:21;;;;;;;4.15;1.95;;;13.40;62.70;;;;;;6158164;23;20021;-76
2022/01/07 06:27:47;;;;;;;12.85;2.05;;;13.60;62.40;;;;;;6156377;23;20390;-78
2022/01/07 06:30:14;;;;;;;4.63;2.15;;;13.80;62.40;;;;;;6157306;23;20057;-78
2022/01/07 06:32:40;;;;;;;7.32;1.77;;;14.00;62.30;;;;;;6158684;23;20029;-77
2022/01/07 06:35:07;;;;;;;5.43;1.65;;;14.10;62.10;;;;;;6156970;23;20312;-76
2022/01/07 06:37:33;;;;;;;5.80;1.63;;;14.30;62.00;;;;;;6132148;23;20033;-76
2022/01/07 06:39:59;;;;;;;4.03;1.60;;;14.40;61.90;;;;;;6158223;23;20096;-76
2022/01/07 06:42:25;;;;;;;6.38;1.38;;;14.50;61.70;;;;;;6156954;23;20111;-77
2022/01/07 06:44:51;;;;;;;10.68;2.10;;;14.70;61.70;;;;;;6157818;23;20088;-78
2022/01/07 06:47:17;;;;;;;8.18;2.38;;;14.80;61.60;;;;;;6156548;23;20029;-77
2022/01/07 06:49:43;;;;;;;4.80;1.83;;;14.80;61.50;;;;;;6156340;23;20017;-77
2022/01/07 06:52:09;;;;;;;6.93;1.98;;;14.90;61.40;;;;;;6157762;23;20021;-77
2022/01/07 06:54:36;;;;;;;9.23;2.15;;;15.00;61.40;;;;;;6132502;23;20025;-76
2022/01/07 06:57:02;;;;;;;12.82;2.40;;;15.00;61.40;;;;;;6157741;23;20024;-74
2022/01/07 06:59:28;;;;;;;12.48;2.40;;;15.10;61.50;;;;;;6158205;23;20013;-76
2022/01/07 07:01:54;;;;;;;15.15;2.45;;;15.10;61.70;;;;;;6157885;23;20130;-74
2022/01/07 07:04:20;;;;;;;12.18;2.58;;;15.10;61.80;;;;;;6158788;23;20033;-74
2022/01/07 07:06:46;;;;;;;12.38;2.17;;;15.10;61.70;;;;;;6157798;23;20025;-73
2022/01/07 07:09:13;;;;;;;20.65;2.20;;;15.20;61.80;;;;;;6156602;23;20335;-74
2022/01/07 07:11:39;;;;;;;8.95;2.05;;;15.30;61.70;;;;;;6157671;23;20036;-74
2022/01/07 07:14:06;;;;;;;13.32;2.25;;;15.40;61.50;;;;;;6157954;23;20029;-74
2022/01/07 07:16:32;;;;;;;10.18;2.45;;;15.40;61.60;;;;;;6158480;23;20032;-75
2022/01/07 07:18:57;;;;;;;7.10;2.33;;;15.40;61.50;;;;;;6157738;23;20025;-74
2022/01/07 07:21:26;;;;;;;8.43;1.73;;;15.50;61.30;;;;;;6156665;23;20104;-75
2022/01/07 07:23:52;;;;;;;10.90;2.35;;;15.60;61.30;;;;;;6157958;23;20022;-73
2022/01/07 07:26:18;;;;;;;7.53;1.85;;;15.60;61.20;;;;;;6157726;23;20022;-74
2022/01/07 07:28:46;;;;;;;9.70;2.03;;;15.70;61.10;;;;;;6158608;23;20021;-74
2022/01/07 07:31:15;;;;;;;12.18;1.90;;;15.70;61.10;;;;;;6158017;23;20032;-74
2022/01/07 07:36:30;;;;;;;9.85;1.67;;;15.70;61.00;;;;;;6158025;23;20033;-75
2022/01/07 07:39:01;;;;;;;7.55;1.67;;;15.80;61.00;;;;;;6156540;23;20096;-75
2022/01/07 07:41:28;;;;;;;5.80;1.90;;;15.80;60.90;;;;;;6156855;23;20021;-68
2022/01/07 07:43:56;;;;;;;6.28;1.55;;;15.80;60.70;;;;;;6156268;23;20040;-75
2022/01/07 07:46:22;;;;;;;7.78;1.73;;;15.90;60.50;;;;;;6157655;23;20097;-76
2022/01/07 07:48:48;;;;;;;12.98;2.28;;;16.00;60.20;;;;;;6156309;23;20355;-75
2022/01/07 07:51:15;;;;;;;10.05;2.25;;;16.00;60.40;;;;;;6156771;23;20029;-73
2022/01/07 07:53:41;;;;;;;8.45;1.80;;;16.00;60.40;;;;;;6159396;23;20088;-76
2022/01/07 07:56:09;;;;;;;6.28;1.27;;;16.10;60.40;;;;;;6158608;23;20027;-76
2022/01/07 07:58:35;;;;;;;5.35;1.60;;;16.10;60.20;;;;;;6159479;23;20017;-72
2022/01/07 08:01:01;;;;;;;11.35;1.88;;;16.20;60.20;;;;;;6159920;23;20096;-77
2022/01/07 08:03:27;;;;;;;9.55;4.57;;;16.20;60.00;;;;;;6133741;23;20104;-77
2022/01/07 08:05:53;;;;;;;7.03;3.55;;;15.40;52.60;;;;;;6158323;23;20360;-79
2022/01/07 08:08:18;;;;;;;7.00;2.00;;;13.70;57.20;;;;;;6133502;23;20022;-75
2022/01/07 08:10:51;;;;;;;5.57;2.10;;;13.30;63.30;;;;;;6158184;23;20025;-76
2022/01/07 08:13:30;;;;;;;7.65;2.22;;;14.10;64.20;;;;;;6159261;23;20017;-74
2022/01/07 08:16:04;;;;;;;6.05;1.70;;;14.70;63.10;;;;;;6159172;23;20013;-76
2022/01/07 08:18:31;;;;;;;;;;;15.30;62.00;;;;;;6158932;23;20100;-75
2022/01/07 08:21:02;;;;;;;5.85;2.15;;;13.50;58.50;;;;;;6159591;23;19916;-73
2022/01/07 08:23:28;;;;;;;11.80;4.60;;;14.00;64.20;;;;;;6158520;23;20017;-74
2022/01/07 08:25:54;;;;;;;9.00;3.72;;;13.30;59.90;;;;;;6159796;23;20025;-73
2022/01/07 08:28:23;;;;;;;8.50;3.72;;;12.80;62.20;;;;;;6159003;23;20018;-76
2022/01/07 08:36:22;;;;;;;11.07;4.15;;;12.20;65.90;;;;;;6158996;23;20100;-75
2022/01/07 08:38:49;;;;;;;11.27;4.20;;;12.00;66.70;;;;;;6158887;23;20328;-75
2022/01/07 08:41:16;;;;;;;12.02;4.60;;;12.00;67.20;;;;;;6158837;23;20419;-75
2022/01/07 08:43:43;;;;;;;11.93;4.15;;;12.00;67.00;;;;;;6160331;23;20024;-77
2022/01/07 08:46:09;;;;;;;9.02;3.03;;;12.00;67.40;;;;;;6159148;23;20048;-76
2022/01/07 08:48:36;;;;;;;10.65;3.40;;;12.20;70.40;;;;;;6158089;23;20092;-76
2022/01/07 08:51:03;;;;;;;8.00;4.03;;;13.30;64.90;;;;;;6159337;23;20344;-78
2022/01/07 08:53:29;;;;;;;14.43;4.68;;;12.70;65.10;;;;;;6158356;23;20025;-77
2022/01/07 08:55:55;;;;;;;9.82;3.47;;;12.40;65.70;;;;;;6158693;23;20109;-76
2022/01/07 08:58:21;;;;;;;7.32;3.90;;;12.30;66.60;;;;;;6158379;23;20025;-77
2022/01/07 09:00:47;;;;;;;11.55;3.05;;;12.50;67.40;;;;;;6158953;23;20315;-77
2022/01/07 09:03:13;;;;;;;7.47;3.90;;;12.50;67.60;;;;;;6132950;23;20036;-76
2022/01/07 09:05:39;;;;;;;11.00;4.28;;;12.40;66.80;;;;;;6159187;23;20017;-76
2022/01/07 09:08:07;;;;;;;10.18;3.58;;;12.20;67.20;;;;;;6159229;23;20013;-77
2022/01/07 09:10:33;;;;;;;8.18;4.47;;;12.20;67.80;;;;;;6159032;23;20017;-77
2022/01/07 09:12:59;;;;;;;8.63;3.60;;;12.10;68.30;;;;;;6159422;23;20021;-76
2022/01/07 09:15:24;;;;;;;7.97;3.00;;;12.10;68.00;;;;;;6157765;23;20315;-76
2022/01/07 09:17:50;;;;;;;9.73;2.58;;;12.30;70.00;;;;;;6159692;23;20028;-75
2022/01/07 09:20:16;;;;;;;6.75;4.05;;;13.40;68.70;;;;;;6158958;23;20126;-76
2022/01/07 09:22:41;;;;;;;8.50;2.65;;;13.10;67.20;;;;;;6158982;23;20028;-78
2022/01/07 09:25:08;;;;;;;12.77;3.50;;;14.10;66.90;;;;;;6159276;23;20017;-77
2022/01/07 09:27:34;;;;;;;9.73;3.22;;;14.10;64.40;;;;;;6158906;23;20113;-78
2022/01/07 09:30:00;;;;;;;6.22;2.33;;;13.70;66.60;;;;;;6158210;23;20028;-78
2022/01/07 09:32:26;;;;;;;8.10;2.20;;;14.10;68.30;;;;;;6159326;23;20024;-76
2022/01/07 09:34:52;;;;;;;8.43;2.53;;;14.80;67.00;;;;;;6132931;23;20025;-79
2022/01/07 09:37:18;;;;;;;8.10;2.35;;;15.30;65.80;;;;;;6158847;23;20013;-75
2022/01/07 09:39:43;;;;;;;14.77;2.45;;;15.60;64.60;;;;;;6158230;23;20018;-74
2022/01/07 09:42:10;;;;;;;6.88;2.08;;;16.00;64.10;;;;;;6157598;23;20088;-76
2022/01/07 09:44:40;;;;;;;8.23;2.15;;;16.10;63.90;;;;;;6158798;23;20033;-74
2022/01/07 09:47:07;;;;;;;12.10;2.20;;;16.20;63.50;;;;;;6158836;23;20064;-77
2022/01/07 09:49:34;;;;;;;5.72;1.67;;;16.30;63.30;;;;;;6158002;23;20021;-76
2022/01/07 09:52:04;;;;;;;11.27;1.77;;;16.30;63.20;;;;;;6158544;23;20025;-77
2022/01/07 09:54:30;;;;;;;8.80;1.50;;;16.30;63.00;;;;;;6156885;23;20017;-78
2022/01/07 09:56:55;;;;;;;8.00;1.80;;;16.30;63.20;;;;;;6132941;23;20045;-75
2022/01/07 09:59:21;;;;;;;9.70;2.58;;;16.30;63.40;;;;;;6158356;23;20120;-76
2022/01/07 10:02:01;;;;;;;9.45;2.33;;;16.30;63.20;;;;;;6158507;23;20097;-75
2022/01/07 10:04:33;;;;;;;10.15;1.77;;;16.20;62.20;;;;;;6157522;23;20147;-77
2022/01/07 10:07:24;;;;;;;7.43;1.67;;;16.30;62.20;;;;;;6157455;23;20100;-76
2022/01/07 10:10:17;;;;;;;8.13;2.28;;;16.20;62.20;;;;;;6157182;23;20022;-76
2022/01/07 10:13:06;;;;;;;7.68;2.03;;;16.00;59.40;;;;;;6158039;23;20017;-76
2022/01/07 10:15:34;;;;;;;9.80;2.25;;;15.30;63.10;;;;;;6158000;23;20021;-78
2022/01/07 10:18:04;;;;;;;10.77;1.73;;;15.60;63.80;;;;;;6157694;23;20017;-77
2022/01/07 10:20:41;;;;;;;15.35;2.22;;;15.70;63.80;;;;;;6158496;23;20025;-77
2022/01/07 10:23:09;;;;;;;11.23;2.30;;;15.90;63.80;;;;;;6157018;23;20029;-76
2022/01/07 10:25:38;;;;;;;10.25;2.10;;;16.10;63.60;;;;;;6132280;23;20017;-78
2022/01/07 10:28:07;;;;;;;11.45;2.40;;;16.10;63.50;;;;;;6156762;23;20320;-79
2022/01/07 10:30:40;;;;;;;13.02;1.60;;;16.20;63.30;;;;;;6158058;23;20017;-75
2022/01/07 10:33:26;;;;;;;16.07;2.97;;;16.30;63.20;;;;;;6158185;23;20313;-75
2022/01/07 10:36:18;;;;;;;8.00;1.80;;;16.30;62.30;;;;;;6158013;23;20029;-75
2022/01/07 10:39:00;;;;;;;12.65;2.45;;;16.30;63.20;;;;;;6158980;23;20072;-77
2022/01/07 10:41:26;;;;;;;11.38;1.88;;;16.40;63.70;;;;;;6157825;23;20320;-78
2022/01/07 10:43:52;;;;;;;10.32;1.42;;;16.50;63.30;;;;;;6157995;23;20033;-77
2022/01/07 10:46:30;;;;;;;8.68;1.58;;;16.50;63.00;;;;;;6158148;23;20013;-77
2022/01/07 10:48:59;;;;;;;15.15;2.22;;;16.50;62.90;;;;;;6156225;23;20088;-77
2022/01/07 10:51:38;;;;;;;13.93;2.63;;;16.60;62.00;;;;;;6156904;23;20032;-78
2022/01/07 10:54:09;;;;;;;9.45;1.92;;;16.60;60.70;;;;;;6158092;23;20021;-76
2022/01/07 10:56:41;;;;;;;8.85;2.03;;;16.60;60.80;;;;;;6155646;23;20023;-74
2022/01/07 10:59:09;;;;;;;11.63;2.60;;;16.60;60.00;;;;;;6158159;23;20018;-76
2022/01/07 11:01:37;;;;;;;6.55;2.42;;;16.10;58.10;;;;;;6157675;23;20032;-76
2022/01/07 11:04:12;;;;;;;6.30;1.63;;;15.00;61.20;;;;;;6157986;23;20461;-77
2022/01/07 11:06:39;;;;;;;9.73;2.15;;;14.50;63.60;;;;;;6157240;23;20430;-73
2022/01/07 11:09:09;;;;;;;5.22;1.73;;;14.00;65.30;;;;;;6157664;23;20013;-76
2022/01/07 11:11:42;;;;;;;4.57;1.98;;;13.90;65.70;;;;;;6158042;23;20009;-74
2022/01/07 11:14:08;;;;;;;9.45;1.85;;;13.60;67.30;;;;;;6158013;23;20092;-74
2022/01/07 11:16:38;;;;;;;4.85;1.63;;;13.40;67.30;;;;;;6157459;23;20431;-74
2022/01/07 11:19:06;;;;;;;8.77;2.33;;;13.30;67.60;;;;;;6157726;23;20048;-75
2022/01/07 11:21:32;;;;;;;8.27;2.05;;;13.20;67.60;;;;;;6157935;23;20037;-75
2022/01/07 11:23:58;;;;;;;6.13;2.00;;;13.20;67.90;;;;;;6133194;23;20048;-75
2022/01/07 11:26:24;;;;;;;12.55;1.60;;;13.20;67.80;;;;;;6158183;23;20017;-77
2022/01/07 11:29:11;;;;;;;10.63;1.58;;;13.10;67.60;;;;;;6157267;23;20113;-75
2022/01/07 11:31:36;;;;;;;5.85;1.55;;;13.10;67.60;;;;;;6157249;23;20057;-76
2022/01/07 11:34:22;;;;;;;7.50;1.15;;;13.00;67.60;;;;;;6157988;23;20026;-76
2022/01/07 11:36:48;;;;;;;7.18;1.58;;;13.00;67.60;;;;;;6158495;23;20375;-74
2022/01/07 11:39:14;;;;;;;6.07;1.80;;;13.10;67.60;;;;;;6158026;23;20356;-75
2022/01/07 11:41:50;;;;;;;6.88;1.35;;;13.00;67.50;;;;;;6157897;23;20076;-76
2022/01/07 11:44:26;;;;;;;8.98;1.00;;;13.00;67.50;;;;;;6157099;23;20024;-81
2022/01/07 11:47:12;;;;;;;5.57;1.35;;;13.20;67.50;;;;;;6156240;23;20426;-75
2022/01/07 11:49:37;;;;;;;5.07;0.82;;;13.30;66.80;;;;;;6156903;23;20029;-74
2022/01/07 11:52:33;;;;;;;5.07;1.10;;;13.20;66.70;;;;;;6157753;23;20024;-75
2022/01/07 11:55:17;;;;;;;7.38;1.33;;;13.20;66.80;;;;;;6155890;23;20348;-74
2022/01/07 11:57:46;;;;;;;;;;;13.20;66.70;;;;;;6156692;23;20091;-75
2022/01/07 12:00:12;;;;;;;4.53;1.17;;;13.10;66.80;;;;;;6158076;23;19920;-75
2022/01/07 12:03:01;;;;;;;3.85;1.20;;;13.20;66.90;;;;;;6157929;23;20025;-75
2022/01/07 12:05:31;;;;;;;5.97;1.08;;;13.10;66.90;;;;;;6157667;23;20022;-74
2022/01/07 12:07:57;;;;;;;6.03;1.00;;;13.10;66.60;;;;;;6156229;23;20419;-74
2022/01/07 12:10:22;;;;;;;3.58;1.00;;;13.50;66.50;;;;;;6157670;23;20024;-77
2022/01/07 12:12:50;;;;;;;4.25;0.90;;;13.90;65.30;;;;;;6131869;23;20063;-77
2022/01/07 12:15:24;;;;;;;5.38;1.15;;;14.30;64.30;;;;;;6157220;23;20076;-73
2022/01/07 12:17:50;;;;;;;7.32;1.50;;;14.60;63.30;;;;;;6157287;23;20407;-73
2022/01/07 12:20:46;;;;;;;9.57;1.08;;;14.90;62.30;;;;;;6157980;23;20060;-73
2022/01/07 12:23:19;;;;;;;7.07;1.63;;;15.10;61.50;;;;;;6157732;23;20026;-73
2022/01/07 12:25:50;;;;;;;12.55;1.23;;;15.30;61.50;;;;;;6157384;23;20021;-74
2022/01/07 12:28:16;;;;;;;10.13;1.65;;;15.50;61.50;;;;;;6156556;23;20060;-78
2022/01/07 12:30:43;;;;;;;12.38;1.63;;;15.70;60.80;;;;;;6157173;23;20025;-80
2022/01/07 12:33:10;;;;;;;14.07;2.08;;;15.80;60.10;;;;;;6156626;23;20018;-78
2022/01/07 12:35:37;;;;;;;16.88;1.30;;;15.70;54.80;;;;;;6154637;23;20055;-78
2022/01/07 12:38:17;;;;;;;11.32;1.15;;;15.90;58.90;;;;;;6155923;23;20346;-77
2022/01/07 12:40:55;;;;;;;7.35;1.50;;;16.00;59.70;;;;;;6157351;23;20097;-77
2022/01/07 12:43:22;;;;;;;6.18;1.02;;;16.20;59.40;;;;;;6158465;23;20025;-79
2022/01/07 12:45:57;;;;;;;7.93;1.63;;;16.30;59.70;;;;;;6158727;23;20442;-78
2022/01/07 12:48:38;;;;;;;5.97;1.13;;;16.30;59.70;;;;;;6157550;23;20017;-78
2022/01/07 12:51:05;;;;;;;9.70;1.23;;;16.40;59.20;;;;;;6159092;23;20322;-78
2022/01/07 12:53:31;;;;;;;5.45;1.60;;;16.40;59.00;;;;;;6158731;23;20022;-78
2022/01/07 12:56:28;;;;;;;8.15;1.02;;;16.50;58.90;;;;;;6158517;23;20415;-77
2022/01/07 12:58:55;;;;;;;12.52;1.48;;;16.40;58.40;;;;;;6157767;23;20028;-77